sensor_id;sensor_type;location;lat;lon;timestamp;pressure;altitude;pressure_sealevel;temperature;humidity
53960;BME280;39866;48.638;-2.020;2024-02-15T00:00:01;101228.84;;;17.37;100.00
53960;BME280;39866;48.638;-2.020;2024-02-15T00:02:26;101209.53;;;17.46;100.00
53960;BME280;39866;48.638;-2.020;2024-02-15T00:04:52;101212.47;;;17.59;100.00
53960;BME280;39866;48.638;-2.020;2024-02-15T00:07:17;101220.25;;;17.48;100.00
53960;BME280;39866;48.638;-2.020;2024-02-15T00:09:44;101226.34;;;17.51;100.00
53960;BME280;39866;48.638;-2.020;2024-02-15T00:12:09;101227.38;;;17.66;100.00
53960;BME280;39866;48.638;-2.020;2024-02-15T00:14:35;101230.69;;;17.71;100.00
53960;BME280;39866;48.638;-2.020;2024-02-15T00:17:03;101225.25;;;17.73;100.00
53960;BME280;39866;48.638;-2.020;2024-02-15T00:19:29;101225.50;;;17.68;100.00
53960;BME280;39866;48.638;-2.020;2024-02-15T00:21:55;101225.91;;;17.78;100.00
53960;BME280;39866;48.638;-2.020;2024-02-15T00:24:21;101217.59;;;17.82;100.00
53960;BME280;39866;48.638;-2.020;2024-02-15T00:26:46;101209.38;;;17.86;100.00
53960;BME280;39866;48.638;-2.020;2024-02-15T00:29:13;101223.09;;;17.62;100.00
53960;BME280;39866;48.638;-2.020;2024-02-15T00:31:38;101216.75;;;17.63;100.00
53960;BME280;39866;48.638;-2.020;2024-02-15T00:34:05;101222.63;;;17.71;100.00
53960;BME280;39866;48.638;-2.020;2024-02-15T00:36:31;101218.91;;;17.56;100.00
53960;BME280;39866;48.638;-2.020;2024-02-15T00:38:57;101212.78;;;17.53;100.00
53960;BME280;39866;48.638;-2.020;2024-02-15T00:41:23;101205.22;;;17.61;100.00
53960;BME280;39866;48.638;-2.020;2024-02-15T00:43:48;101211.16;;;17.68;100.00
53960;BME280;39866;48.638;-2.020;2024-02-15T00:46:16;101204.88;;;17.67;100.00
53960;BME280;39866;48.638;-2.020;2024-02-15T00:48:41;101206.19;;;17.77;100.00
53960;BME280;39866;48.638;-2.020;2024-02-15T00:51:07;101189.53;;;17.69;100.00
53960;BME280;39866;48.638;-2.020;2024-02-15T00:53:33;101189.28;;;17.56;100.00
53960;BME280;39866;48.638;-2.020;2024-02-15T00:55:58;101181.09;;;17.41;100.00
53960;BME280;39866;48.638;-2.020;2024-02-15T00:58:23;101189.97;;;17.43;100.00
53960;BME280;39866;48.638;-2.020;2024-02-15T01:00:49;101188.88;;;17.47;100.00
53960;BME280;39866;48.638;-2.020;2024-02-15T01:03:15;101186.84;;;17.52;100.00
53960;BME280;39866;48.638;-2.020;2024-02-15T01:05:41;101177.22;;;17.46;100.00
53960;BME280;39866;48.638;-2.020;2024-02-15T01:08:06;101183.28;;;17.51;100.00
53960;BME280;39866;48.638;-2.020;2024-02-15T01:10:34;101168.75;;;17.54;100.00
53960;BME280;39866;48.638;-2.020;2024-02-15T01:12:59;101171.31;;;17.57;100.00
53960;BME280;39866;48.638;-2.020;2024-02-15T01:15:25;101162.59;;;17.52;100.00
53960;BME280;39866;48.638;-2.020;2024-02-15T01:17:50;101164.34;;;17.53;100.00
53960;BME280;39866;48.638;-2.020;2024-02-15T01:20:15;101157.88;;;17.74;100.00
53960;BME280;39866;48.638;-2.020;2024-02-15T01:22:41;101150.50;;;17.61;100.00
53960;BME280;39866;48.638;-2.020;2024-02-15T01:25:06;101153.03;;;17.64;100.00
53960;BME280;39866;48.638;-2.020;2024-02-15T01:27:32;101151.13;;;17.83;100.00
53960;BME280;39866;48.638;-2.020;2024-02-15T01:29:57;101141.47;;;17.62;100.00
53960;BME280;39866;48.638;-2.020;2024-02-15T01:32:23;101148.09;;;17.54;100.00
53960;BME280;39866;48.638;-2.020;2024-02-15T01:34:48;101146.69;;;17.65;100.00
53960;BME280;39866;48.638;-2.020;2024-02-15T01:37:16;101145.94;;;17.80;100.00
53960;BME280;39866;48.638;-2.020;2024-02-15T01:39:41;101141.94;;;17.70;100.00
53960;BME280;39866;48.638;-2.020;2024-02-15T01:42:07;101147.41;;;17.68;100.00
53960;BME280;39866;48.638;-2.020;2024-02-15T01:44:32;101140.69;;;17.77;100.00
53960;BME280;39866;48.638;-2.020;2024-02-15T01:46:58;101135.31;;;17.77;100.00
53960;BME280;39866;48.638;-2.020;2024-02-15T01:49:24;101127.75;;;17.83;100.00
53960;BME280;39866;48.638;-2.020;2024-02-15T01:51:52;101131.25;;;17.86;100.00
53960;BME280;39866;48.638;-2.020;2024-02-15T01:54:20;101122.56;;;17.80;100.00
53960;BME280;39866;48.638;-2.020;2024-02-15T01:56:45;101129.13;;;17.92;100.00
53960;BME280;39866;48.638;-2.020;2024-02-15T01:59:14;101120.97;;;17.76;100.00
53960;BME280;39866;48.638;-2.020;2024-02-15T02:01:40;101118.03;;;17.81;100.00
53960;BME280;39866;48.638;-2.020;2024-02-15T02:04:06;101126.50;;;17.91;100.00
53960;BME280;39866;48.638;-2.020;2024-02-15T02:06:33;101136.25;;;17.93;100.00
53960;BME280;39866;48.638;-2.020;2024-02-15T02:08:58;101127.34;;;17.74;100.00
53960;BME280;39866;48.638;-2.020;2024-02-15T02:11:24;101121.97;;;17.74;100.00
53960;BME280;39866;48.638;-2.020;2024-02-15T02:13:50;101122.38;;;17.83;100.00
53960;BME280;39866;48.638;-2.020;2024-02-15T02:18:52;101108.59;;;17.90;100.00
53960;BME280;39866;48.638;-2.020;2024-02-15T02:21:17;101090.41;;;17.77;100.00
53960;BME280;39866;48.638;-2.020;2024-02-15T02:23:44;101095.28;;;17.69;100.00
53960;BME280;39866;48.638;-2.020;2024-02-15T02:26:12;101095.28;;;17.69;100.00
53960;BME280;39866;48.638;-2.020;2024-02-15T02:28:37;101093.38;;;17.71;100.00
53960;BME280;39866;48.638;-2.020;2024-02-15T02:31:03;101094.00;;;17.59;100.00
53960;BME280;39866;48.638;-2.020;2024-02-15T02:33:28;101091.56;;;17.54;100.00
53960;BME280;39866;48.638;-2.020;2024-02-15T02:35:54;101095.78;;;17.77;100.00
53960;BME280;39866;48.638;-2.020;2024-02-15T02:38:22;101079.28;;;17.66;100.00
53960;BME280;39866;48.638;-2.020;2024-02-15T02:40:51;101082.78;;;17.68;100.00
53960;BME280;39866;48.638;-2.020;2024-02-15T02:43:17;101070.84;;;17.39;100.00
53960;BME280;39866;48.638;-2.020;2024-02-15T02:45:42;101064.41;;;17.59;100.00
53960;BME280;39866;48.638;-2.020;2024-02-15T02:48:10;101053.72;;;17.57;100.00
53960;BME280;39866;48.638;-2.020;2024-02-15T02:50:37;101057.91;;;17.63;100.00
53960;BME280;39866;48.638;-2.020;2024-02-15T02:53:02;101058.78;;;17.64;100.00
53960;BME280;39866;48.638;-2.020;2024-02-15T02:55:28;101043.50;;;17.64;100.00
53960;BME280;39866;48.638;-2.020;2024-02-15T02:57:53;101052.00;;;17.56;100.00
53960;BME280;39866;48.638;-2.020;2024-02-15T03:00:20;101047.84;;;17.67;100.00
53960;BME280;39866;48.638;-2.020;2024-02-15T03:02:46;101043.34;;;17.50;100.00
53960;BME280;39866;48.638;-2.020;2024-02-15T03:05:12;101047.97;;;17.48;100.00
53960;BME280;39866;48.638;-2.020;2024-02-15T03:07:39;101035.22;;;17.34;100.00
53960;BME280;39866;48.638;-2.020;2024-02-15T03:10:08;101040.84;;;17.29;100.00
53960;BME280;39866;48.638;-2.020;2024-02-15T03:12:35;101013.44;;;17.21;100.00
53960;BME280;39866;48.638;-2.020;2024-02-15T03:15:02;101013.31;;;17.24;100.00
53960;BME280;39866;48.638;-2.020;2024-02-15T03:17:28;101012.66;;;17.37;100.00
53960;BME280;39866;48.638;-2.020;2024-02-15T03:19:53;101008.94;;;17.39;100.00
53960;BME280;39866;48.638;-2.020;2024-02-15T03:22:18;101013.59;;;17.18;100.00
53960;BME280;39866;48.638;-2.020;2024-02-15T03:24:44;101004.19;;;17.44;100.00
53960;BME280;39866;48.638;-2.020;2024-02-15T03:27:09;101005.53;;;17.36;100.00
53960;BME280;39866;48.638;-2.020;2024-02-15T03:29:38;101009.81;;;17.22;100.00
53960;BME280;39866;48.638;-2.020;2024-02-15T03:32:03;101002.53;;;17.24;100.00
53960;BME280;39866;48.638;-2.020;2024-02-15T03:34:30;101002.25;;;17.46;100.00
53960;BME280;39866;48.638;-2.020;2024-02-15T03:36:56;101009.16;;;17.34;100.00
53960;BME280;39866;48.638;-2.020;2024-02-15T03:39:22;100997.38;;;17.37;100.00
53960;BME280;39866;48.638;-2.020;2024-02-15T03:41:49;101003.56;;;17.39;100.00
53960;BME280;39866;48.638;-2.020;2024-02-15T03:44:14;100992.75;;;17.56;100.00
53960;BME280;39866;48.638;-2.020;2024-02-15T03:46:40;100988.41;;;17.54;100.00
53960;BME280;39866;48.638;-2.020;2024-02-15T03:49:05;100993.78;;;17.54;100.00
53960;BME280;39866;48.638;-2.020;2024-02-15T03:51:33;100988.34;;;17.38;100.00
53960;BME280;39866;48.638;-2.020;2024-02-15T03:53:59;100980.13;;;17.41;100.00
53960;BME280;39866;48.638;-2.020;2024-02-15T03:56:24;100987.16;;;17.44;100.00
53960;BME280;39866;48.638;-2.020;2024-02-15T03:58:49;100978.13;;;17.45;100.00
53960;BME280;39866;48.638;-2.020;2024-02-15T04:01:16;100981.28;;;17.53;100.00
53960;BME280;39866;48.638;-2.020;2024-02-15T04:03:41;100986.97;;;17.47;100.00
53960;BME280;39866;48.638;-2.020;2024-02-15T04:06:06;100978.75;;;17.50;100.00
53960;BME280;39866;48.638;-2.020;2024-02-15T04:08:32;100974.66;;;17.25;100.00
53960;BME280;39866;48.638;-2.020;2024-02-15T04:10:58;100973.56;;;17.29;100.00
53960;BME280;39866;48.638;-2.020;2024-02-15T04:13:24;100968.38;;;17.42;100.00
53960;BME280;39866;48.638;-2.020;2024-02-15T04:15:49;100972.59;;;17.48;100.00
53960;BME280;39866;48.638;-2.020;2024-02-15T04:18:17;100968.31;;;17.44;100.00
53960;BME280;39866;48.638;-2.020;2024-02-15T04:20:43;100970.09;;;17.27;100.00
53960;BME280;39866;48.638;-2.020;2024-02-15T04:23:11;100973.06;;;17.39;100.00
53960;BME280;39866;48.638;-2.020;2024-02-15T04:25:36;100964.69;;;17.45;100.00
53960;BME280;39866;48.638;-2.020;2024-02-15T04:28:02;100959.84;;;17.34;100.00
53960;BME280;39866;48.638;-2.020;2024-02-15T04:30:29;100972.91;;;17.42;100.00
53960;BME280;39866;48.638;-2.020;2024-02-15T04:32:55;100970.16;;;17.59;100.00
53960;BME280;39866;48.638;-2.020;2024-02-15T04:35:20;100968.69;;;17.53;100.00
53960;BME280;39866;48.638;-2.020;2024-02-15T04:37:46;100962.91;;;17.61;100.00
53960;BME280;39866;48.638;-2.020;2024-02-15T04:40:13;100971.06;;;17.60;100.00
53960;BME280;39866;48.638;-2.020;2024-02-15T04:42:39;100976.19;;;17.64;100.00
53960;BME280;39866;48.638;-2.020;2024-02-15T04:45:06;100972.63;;;17.64;100.00
53960;BME280;39866;48.638;-2.020;2024-02-15T04:47:36;100964.59;;;17.46;100.00
53960;BME280;39866;48.638;-2.020;2024-02-15T04:50:02;100959.38;;;17.43;100.00
53960;BME280;39866;48.638;-2.020;2024-02-15T04:52:28;100956.25;;;17.35;100.00
53960;BME280;39866;48.638;-2.020;2024-02-15T04:54:53;100958.84;;;17.37;100.00
53960;BME280;39866;48.638;-2.020;2024-02-15T04:57:23;100954.94;;;17.42;100.00
53960;BME280;39866;48.638;-2.020;2024-02-15T04:59:48;100949.50;;;17.44;100.00
53960;BME280;39866;48.638;-2.020;2024-02-15T05:02:15;100951.22;;;17.45;100.00
53960;BME280;39866;48.638;-2.020;2024-02-15T05:04:40;100940.56;;;17.59;100.00
53960;BME280;39866;48.638;-2.020;2024-02-15T05:07:08;100935.78;;;17.48;100.00
53960;BME280;39866;48.638;-2.020;2024-02-15T05:09:33;100933.66;;;17.38;100.00
53960;BME280;39866;48.638;-2.020;2024-02-15T05:12:00;100926.69;;;17.33;100.00
53960;BME280;39866;48.638;-2.020;2024-02-15T05:14:27;100922.22;;;17.50;100.00
53960;BME280;39866;48.638;-2.020;2024-02-15T05:16:52;100916.94;;;17.48;100.00
53960;BME280;39866;48.638;-2.020;2024-02-15T05:19:18;100918.41;;;17.54;100.00
53960;BME280;39866;48.638;-2.020;2024-02-15T05:21:44;100914.00;;;17.53;100.00
53960;BME280;39866;48.638;-2.020;2024-02-15T05:24:12;100913.47;;;17.62;100.00
53960;BME280;39866;48.638;-2.020;2024-02-15T05:26:39;100911.19;;;17.54;100.00
53960;BME280;39866;48.638;-2.020;2024-02-15T05:29:04;100913.19;;;17.51;100.00
53960;BME280;39866;48.638;-2.020;2024-02-15T05:31:30;100900.69;;;17.50;100.00
53960;BME280;39866;48.638;-2.020;2024-02-15T05:33:55;100901.75;;;17.47;100.00
53960;BME280;39866;48.638;-2.020;2024-02-15T05:36:21;100898.16;;;17.47;100.00
53960;BME280;39866;48.638;-2.020;2024-02-15T05:38:56;100895.00;;;17.39;100.00
53960;BME280;39866;48.638;-2.020;2024-02-15T05:41:23;100887.44;;;17.29;100.00
53960;BME280;39866;48.638;-2.020;2024-02-15T05:43:49;100889.31;;;17.45;100.00
53960;BME280;39866;48.638;-2.020;2024-02-15T05:46:17;100877.94;;;17.40;100.00
53960;BME280;39866;48.638;-2.020;2024-02-15T05:48:42;100874.38;;;17.39;100.00
53960;BME280;39866;48.638;-2.020;2024-02-15T05:51:08;100870.38;;;17.46;100.00
53960;BME280;39866;48.638;-2.020;2024-02-15T05:53:34;100869.94;;;17.38;100.00
53960;BME280;39866;48.638;-2.020;2024-02-15T05:56:04;100870.09;;;17.19;100.00
53960;BME280;39866;48.638;-2.020;2024-02-15T05:58:30;100863.22;;;17.29;100.00
53960;BME280;39866;48.638;-2.020;2024-02-15T06:00:56;100870.19;;;17.33;100.00
53960;BME280;39866;48.638;-2.020;2024-02-15T06:03:26;100859.78;;;17.10;100.00
53960;BME280;39866;48.638;-2.020;2024-02-15T06:05:52;100852.16;;;17.02;100.00
53960;BME280;39866;48.638;-2.020;2024-02-15T06:08:22;100833.59;;;17.14;100.00
53960;BME280;39866;48.638;-2.020;2024-02-15T06:10:48;100836.03;;;17.18;100.00
53960;BME280;39866;48.638;-2.020;2024-02-15T06:13:13;100843.78;;;17.24;100.00
53960;BME280;39866;48.638;-2.020;2024-02-15T06:15:39;100847.81;;;17.00;100.00
53960;BME280;39866;48.638;-2.020;2024-02-15T06:18:04;100837.00;;;17.17;100.00
53960;BME280;39866;48.638;-2.020;2024-02-15T06:20:34;100833.25;;;17.04;100.00
53960;BME280;39866;48.638;-2.020;2024-02-15T06:23:00;100817.09;;;17.04;100.00
53960;BME280;39866;48.638;-2.020;2024-02-15T06:25:27;100818.31;;;17.14;100.00
53960;BME280;39866;48.638;-2.020;2024-02-15T06:27:52;100825.47;;;17.15;100.00
53960;BME280;39866;48.638;-2.020;2024-02-15T06:30:23;100827.28;;;17.15;100.00
53960;BME280;39866;48.638;-2.020;2024-02-15T06:33:07;100827.50;;;17.27;100.00
53960;BME280;39866;48.638;-2.020;2024-02-15T06:35:51;100818.72;;;17.24;100.00
53960;BME280;39866;48.638;-2.020;2024-02-15T06:38:35;100824.25;;;17.21;100.00
53960;BME280;39866;48.638;-2.020;2024-02-15T06:41:19;100821.00;;;16.98;100.00
53960;BME280;39866;48.638;-2.020;2024-02-15T06:43:44;100820.00;;;17.17;100.00
53960;BME280;39866;48.638;-2.020;2024-02-15T06:46:09;100814.72;;;17.15;100.00
53960;BME280;39866;48.638;-2.020;2024-02-15T06:48:36;100817.78;;;16.92;100.00
53960;BME280;39866;48.638;-2.020;2024-02-15T06:51:03;100810.44;;;17.11;100.00
53960;BME280;39866;48.638;-2.020;2024-02-15T06:53:31;100812.28;;;17.11;100.00
53960;BME280;39866;48.638;-2.020;2024-02-15T06:55:57;100818.53;;;17.11;100.00
53960;BME280;39866;48.638;-2.020;2024-02-15T06:58:22;100810.78;;;17.05;100.00
53960;BME280;39866;48.638;-2.020;2024-02-15T07:00:48;100808.66;;;17.27;100.00
53960;BME280;39866;48.638;-2.020;2024-02-15T07:03:15;100793.09;;;17.17;100.00
53960;BME280;39866;48.638;-2.020;2024-02-15T07:05:42;100796.59;;;17.19;100.00
53960;BME280;39866;48.638;-2.020;2024-02-15T07:08:08;100786.91;;;16.99;100.00
53960;BME280;39866;48.638;-2.020;2024-02-15T07:10:37;100796.34;;;17.06;100.00
53960;BME280;39866;48.638;-2.020;2024-02-15T07:13:03;100792.19;;;17.00;100.00
53960;BME280;39866;48.638;-2.020;2024-02-15T07:15:29;100795.34;;;17.08;100.00
53960;BME280;39866;48.638;-2.020;2024-02-15T07:17:57;100800.81;;;17.07;100.00
53960;BME280;39866;48.638;-2.020;2024-02-15T07:20:23;100797.75;;;17.13;100.00
53960;BME280;39866;48.638;-2.020;2024-02-15T07:22:48;100790.31;;;17.18;100.00
53960;BME280;39866;48.638;-2.020;2024-02-15T07:25:13;100778.72;;;16.84;100.00
53960;BME280;39866;48.638;-2.020;2024-02-15T07:27:39;100775.00;;;16.87;100.00
53960;BME280;39866;48.638;-2.020;2024-02-15T07:30:05;100776.75;;;17.04;100.00
53960;BME280;39866;48.638;-2.020;2024-02-15T07:32:34;100767.09;;;16.84;100.00
53960;BME280;39866;48.638;-2.020;2024-02-15T07:35:00;100771.25;;;16.90;100.00
53960;BME280;39866;48.638;-2.020;2024-02-15T07:37:26;100772.00;;;17.09;100.00
53960;BME280;39866;48.638;-2.020;2024-02-15T07:39:52;100777.19;;;16.96;100.00
53960;BME280;39866;48.638;-2.020;2024-02-15T07:42:17;100781.56;;;17.15;100.00
53960;BME280;39866;48.638;-2.020;2024-02-15T07:44:43;100763.41;;;17.02;100.00
53960;BME280;39866;48.638;-2.020;2024-02-15T07:47:08;100760.00;;;16.99;100.00
53960;BME280;39866;48.638;-2.020;2024-02-15T07:49:36;100754.81;;;17.12;100.00
53960;BME280;39866;48.638;-2.020;2024-02-15T07:52:02;100754.72;;;17.13;100.00
53960;BME280;39866;48.638;-2.020;2024-02-15T07:54:29;100760.81;;;17.17;100.00
53960;BME280;39866;48.638;-2.020;2024-02-15T07:56:56;100762.13;;;17.25;100.00
53960;BME280;39866;48.638;-2.020;2024-02-15T07:59:21;100762.78;;;17.13;100.00
53960;BME280;39866;48.638;-2.020;2024-02-15T08:01:46;100764.78;;;17.09;100.00
53960;BME280;39866;48.638;-2.020;2024-02-15T08:04:18;100770.09;;;17.11;100.00
53960;BME280;39866;48.638;-2.020;2024-02-15T08:06:43;100782.22;;;17.18;100.00
53960;BME280;39866;48.638;-2.020;2024-02-15T08:09:09;100778.59;;;17.03;100.00
53960;BME280;39866;48.638;-2.020;2024-02-15T08:11:39;100775.66;;;17.24;100.00
53960;BME280;39866;48.638;-2.020;2024-02-15T08:14:05;100774.44;;;17.29;100.00
53960;BME280;39866;48.638;-2.020;2024-02-15T08:16:33;100774.69;;;17.09;100.00
53960;BME280;39866;48.638;-2.020;2024-02-15T08:19:00;100781.19;;;17.05;100.00
53960;BME280;39866;48.638;-2.020;2024-02-15T08:21:30;100781.84;;;16.93;100.00
53960;BME280;39866;48.638;-2.020;2024-02-15T08:23:58;100774.16;;;17.18;100.00
53960;BME280;39866;48.638;-2.020;2024-02-15T08:26:24;100781.75;;;17.27;100.00
53960;BME280;39866;48.638;-2.020;2024-02-15T08:28:49;100786.44;;;17.40;100.00
53960;BME280;39866;48.638;-2.020;2024-02-15T08:31:14;100782.50;;;17.29;100.00
53960;BME280;39866;48.638;-2.020;2024-02-15T08:33:41;100773.94;;;17.23;100.00
53960;BME280;39866;48.638;-2.020;2024-02-15T08:36:08;100757.84;;;17.21;100.00
53960;BME280;39866;48.638;-2.020;2024-02-15T08:38:35;100752.41;;;17.23;100.00
53960;BME280;39866;48.638;-2.020;2024-02-15T08:41:02;100763.16;;;17.23;100.00
53960;BME280;39866;48.638;-2.020;2024-02-15T08:43:29;100767.75;;;17.21;100.00
53960;BME280;39866;48.638;-2.020;2024-02-15T08:45:58;100764.03;;;17.23;100.00
53960;BME280;39866;48.638;-2.020;2024-02-15T08:48:23;100758.03;;;17.50;100.00
53960;BME280;39866;48.638;-2.020;2024-02-15T08:50:48;100757.44;;;17.45;100.00
53960;BME280;39866;48.638;-2.020;2024-02-15T08:53:14;100757.44;;;17.29;100.00
53960;BME280;39866;48.638;-2.020;2024-02-15T08:55:40;100751.34;;;17.41;100.00
53960;BME280;39866;48.638;-2.020;2024-02-15T08:58:06;100754.81;;;17.59;100.00
53960;BME280;39866;48.638;-2.020;2024-02-15T09:00:31;100745.97;;;17.57;100.00
53960;BME280;39866;48.638;-2.020;2024-02-15T09:02:56;100746.66;;;17.61;100.00
53960;BME280;39866;48.638;-2.020;2024-02-15T09:05:22;100738.31;;;17.65;100.00
53960;BME280;39866;48.638;-2.020;2024-02-15T09:07:48;100738.31;;;17.65;100.00
53960;BME280;39866;48.638;-2.020;2024-02-15T09:10:16;100732.56;;;17.71;100.00
53960;BME280;39866;48.638;-2.020;2024-02-15T09:12:47;100728.75;;;17.75;100.00
53960;BME280;39866;48.638;-2.020;2024-02-15T09:15:14;100732.22;;;17.62;100.00
53960;BME280;39866;48.638;-2.020;2024-02-15T09:17:40;100732.34;;;17.60;100.00
53960;BME280;39866;48.638;-2.020;2024-02-15T09:20:10;100717.97;;;17.75;100.00
53960;BME280;39866;48.638;-2.020;2024-02-15T09:22:57;100709.59;;;17.96;100.00
53960;BME280;39866;48.638;-2.020;2024-02-15T09:25:23;100685.09;;;18.00;100.00
53960;BME280;39866;48.638;-2.020;2024-02-15T09:27:49;100688.13;;;17.64;100.00
53960;BME280;39866;48.638;-2.020;2024-02-15T09:30:16;100684.41;;;17.51;100.00
53960;BME280;39866;48.638;-2.020;2024-02-15T09:32:42;100668.50;;;17.62;100.00
53960;BME280;39866;48.638;-2.020;2024-02-15T09:35:10;100671.84;;;17.36;100.00
53960;BME280;39866;48.638;-2.020;2024-02-15T09:37:38;100654.63;;;17.54;100.00
53960;BME280;39866;48.638;-2.020;2024-02-15T09:40:12;100644.78;;;17.69;100.00
53960;BME280;39866;48.638;-2.020;2024-02-15T09:42:38;100653.81;;;17.68;100.00
53960;BME280;39866;48.638;-2.020;2024-02-15T09:45:08;100647.97;;;17.75;100.00
53960;BME280;39866;48.638;-2.020;2024-02-15T09:47:38;100657.84;;;17.91;100.00
53960;BME280;39866;48.638;-2.020;2024-02-15T09:50:06;100643.72;;;18.01;100.00
53960;BME280;39866;48.638;-2.020;2024-02-15T09:52:33;100639.97;;;18.04;100.00
53960;BME280;39866;48.638;-2.020;2024-02-15T09:55:02;100642.97;;;18.14;100.00
53960;BME280;39866;48.638;-2.020;2024-02-15T09:57:29;100639.88;;;18.20;100.00
53960;BME280;39866;48.638;-2.020;2024-02-15T09:59:57;100650.22;;;17.83;100.00
53960;BME280;39866;48.638;-2.020;2024-02-15T10:02:23;100655.47;;;18.00;100.00
53960;BME280;39866;48.638;-2.020;2024-02-15T10:04:49;100672.09;;;18.07;100.00
53960;BME280;39866;48.638;-2.020;2024-02-15T10:07:15;100658.06;;;18.16;100.00
53960;BME280;39866;48.638;-2.020;2024-02-15T10:09:43;100663.84;;;18.24;100.00
53960;BME280;39866;48.638;-2.020;2024-02-15T10:12:08;100649.72;;;18.21;100.00
53960;BME280;39866;48.638;-2.020;2024-02-15T10:14:35;100661.53;;;18.32;100.00
53960;BME280;39866;48.638;-2.020;2024-02-15T10:17:07;100651.13;;;18.12;100.00
53960;BME280;39866;48.638;-2.020;2024-02-15T10:19:37;100654.81;;;18.40;100.00
53960;BME280;39866;48.638;-2.020;2024-02-15T10:22:09;100648.56;;;18.39;100.00
53960;BME280;39866;48.638;-2.020;2024-02-15T10:24:36;100662.34;;;18.35;100.00
53960;BME280;39866;48.638;-2.020;2024-02-15T10:27:03;100654.22;;;18.20;100.00
53960;BME280;39866;48.638;-2.020;2024-02-15T10:29:36;100652.13;;;18.25;100.00
53960;BME280;39866;48.638;-2.020;2024-02-15T10:32:03;100644.22;;;18.22;100.00
53960;BME280;39866;48.638;-2.020;2024-02-15T10:34:30;100633.91;;;18.15;100.00
53960;BME280;39866;48.638;-2.020;2024-02-15T10:39:36;100617.84;;;18.27;100.00
53960;BME280;39866;48.638;-2.020;2024-02-15T10:42:03;100613.63;;;18.38;100.00
53960;BME280;39866;48.638;-2.020;2024-02-15T10:44:28;100615.25;;;18.40;100.00
53960;BME280;39866;48.638;-2.020;2024-02-15T10:46:54;100616.31;;;18.52;100.00
53960;BME280;39866;48.638;-2.020;2024-02-15T10:49:20;100605.16;;;18.44;100.00
53960;BME280;39866;48.638;-2.020;2024-02-15T10:51:57;100594.84;;;18.50;100.00
53960;BME280;39866;48.638;-2.020;2024-02-15T10:57:12;100586.84;;;18.63;100.00
53960;BME280;39866;48.638;-2.020;2024-02-15T10:59:47;100583.25;;;18.77;100.00
53960;BME280;39866;48.638;-2.020;2024-02-15T11:02:30;100578.56;;;18.52;100.00
53960;BME280;39866;48.638;-2.020;2024-02-15T11:05:01;100579.53;;;18.51;100.00
53960;BME280;39866;48.638;-2.020;2024-02-15T11:07:29;100587.81;;;18.62;100.00
53960;BME280;39866;48.638;-2.020;2024-02-15T11:09:56;100587.44;;;18.54;100.00
53960;BME280;39866;48.638;-2.020;2024-02-15T11:12:25;100578.19;;;18.58;100.00
53960;BME280;39866;48.638;-2.020;2024-02-15T11:14:52;100562.75;;;18.60;100.00
53960;BME280;39866;48.638;-2.020;2024-02-15T11:20:08;100546.25;;;18.38;100.00
53960;BME280;39866;48.638;-2.020;2024-02-15T11:22:35;100540.63;;;18.41;100.00
53960;BME280;39866;48.638;-2.020;2024-02-15T11:25:06;100518.63;;;18.34;100.00
53960;BME280;39866;48.638;-2.020;2024-02-15T11:27:37;100515.06;;;18.34;100.00
53960;BME280;39866;48.638;-2.020;2024-02-15T11:30:04;100505.88;;;18.09;100.00
53960;BME280;39866;48.638;-2.020;2024-02-15T11:32:48;100511.94;;;18.13;100.00
53960;BME280;39866;48.638;-2.020;2024-02-15T11:35:20;100512.16;;;18.37;100.00
53960;BME280;39866;48.638;-2.020;2024-02-15T11:40:16;100501.78;;;18.16;100.00
53960;BME280;39866;48.638;-2.020;2024-02-15T11:42:43;100506.63;;;18.25;100.00
53960;BME280;39866;48.638;-2.020;2024-02-15T11:45:08;100508.91;;;18.31;100.00
53960;BME280;39866;48.638;-2.020;2024-02-15T11:47:37;100514.22;;;18.33;100.00
53960;BME280;39866;48.638;-2.020;2024-02-15T11:50:11;100514.09;;;18.20;100.00
53960;BME280;39866;48.638;-2.020;2024-02-15T11:52:46;100512.75;;;18.27;100.00
53960;BME280;39866;48.638;-2.020;2024-02-15T11:55:14;100519.78;;;18.30;100.00
53960;BME280;39866;48.638;-2.020;2024-02-15T11:57:40;100510.34;;;18.37;100.00
53960;BME280;39866;48.638;-2.020;2024-02-15T12:00:21;100519.84;;;18.43;100.00
53960;BME280;39866;48.638;-2.020;2024-02-15T12:03:04;100509.81;;;18.45;100.00
53960;BME280;39866;48.638;-2.020;2024-02-15T12:06:08;100513.06;;;18.64;100.00
53960;BME280;39866;48.638;-2.020;2024-02-15T12:08:53;100514.47;;;18.84;100.00
53960;BME280;39866;48.638;-2.020;2024-02-15T12:11:38;100512.59;;;18.99;100.00
53960;BME280;39866;48.638;-2.020;2024-02-15T12:14:22;100512.81;;;19.09;100.00
53960;BME280;39866;48.638;-2.020;2024-02-15T12:17:10;100530.06;;;19.06;100.00
53960;BME280;39866;48.638;-2.020;2024-02-15T12:19:55;100548.06;;;19.20;100.00
53960;BME280;39866;48.638;-2.020;2024-02-15T12:24:55;100558.69;;;19.36;100.00
53960;BME280;39866;48.638;-2.020;2024-02-15T12:27:21;100551.28;;;19.25;100.00
53960;BME280;39866;48.638;-2.020;2024-02-15T12:32:20;100560.56;;;19.21;100.00
53960;BME280;39866;48.638;-2.020;2024-02-15T12:34:46;100549.56;;;19.24;100.00
53960;BME280;39866;48.638;-2.020;2024-02-15T12:37:12;100550.44;;;19.24;100.00
53960;BME280;39866;48.638;-2.020;2024-02-15T12:39:38;100541.56;;;19.22;100.00
53960;BME280;39866;48.638;-2.020;2024-02-15T12:42:06;100545.25;;;19.21;100.00
53960;BME280;39866;48.638;-2.020;2024-02-15T12:44:32;100549.06;;;19.32;100.00
53960;BME280;39866;48.638;-2.020;2024-02-15T12:46:57;100543.53;;;19.33;100.00
53960;BME280;39866;48.638;-2.020;2024-02-15T12:51:51;100550.34;;;19.39;100.00